sensor_id;sensor_type;location;lat;lon;timestamp;P1;durP1;ratioP1;P2;durP2;ratioP2
52918;SDS011;38793;52.690;6.812;2022-10-16T00:02:20;8.77;;;1.20;;
52918;SDS011;38793;52.690;6.812;2022-10-16T00:04:45;6.65;;;1.50;;
52918;SDS011;38793;52.690;6.812;2022-10-16T00:07:11;4.90;;;1.10;;
52918;SDS011;38793;52.690;6.812;2022-10-16T00:09:37;3.80;;;1.00;;
52918;SDS011;38793;52.690;6.812;2022-10-16T00:12:02;4.30;;;0.88;;
52918;SDS011;38793;52.690;6.812;2022-10-16T00:14:29;7.22;;;1.48;;
52918;SDS011;38793;52.690;6.812;2022-10-16T00:16:55;6.05;;;2.00;;
52918;SDS011;38793;52.690;6.812;2022-10-16T00:19:20;4.90;;;1.17;;
52918;SDS011;38793;52.690;6.812;2022-10-16T00:21:46;5.73;;;1.63;;
52918;SDS011;38793;52.690;6.812;2022-10-16T00:24:12;6.05;;;1.58;;
52918;SDS011;38793;52.690;6.812;2022-10-16T00:26:37;2.97;;;1.30;;
52918;SDS011;38793;52.690;6.812;2022-10-16T00:29:04;5.47;;;1.17;;
52918;SDS011;38793;52.690;6.812;2022-10-16T00:31:30;9.45;;;1.67;;
52918;SDS011;38793;52.690;6.812;2022-10-16T00:33:55;4.75;;;1.52;;
52918;SDS011;38793;52.690;6.812;2022-10-16T00:36:22;5.15;;;1.20;;
52918;SDS011;38793;52.690;6.812;2022-10-16T00:38:50;4.53;;;1.60;;
52918;SDS011;38793;52.690;6.812;2022-10-16T00:41:18;8.25;;;1.50;;
52918;SDS011;38793;52.690;6.812;2022-10-16T00:43:45;3.08;;;1.23;;
52918;SDS011;38793;52.690;6.812;2022-10-16T00:46:19;7.43;;;1.70;;
52918;SDS011;38793;52.690;6.812;2022-10-16T00:48:51;5.50;;;1.80;;
52918;SDS011;38793;52.690;6.812;2022-10-16T00:51:25;4.80;;;1.10;;
52918;SDS011;38793;52.690;6.812;2022-10-16T00:53:56;6.32;;;1.30;;
52918;SDS011;38793;52.690;6.812;2022-10-16T00:56:22;8.45;;;1.67;;
52918;SDS011;38793;52.690;6.812;2022-10-16T00:58:48;9.98;;;1.48;;
52918;SDS011;38793;52.690;6.812;2022-10-16T01:01:13;4.72;;;1.02;;
52918;SDS011;38793;52.690;6.812;2022-10-16T01:03:39;3.65;;;1.40;;
52918;SDS011;38793;52.690;6.812;2022-10-16T01:06:11;4.72;;;1.25;;
52918;SDS011;38793;52.690;6.812;2022-10-16T01:08:58;7.22;;;1.50;;
52918;SDS011;38793;52.690;6.812;2022-10-16T01:12:19;3.13;;;1.20;;
52918;SDS011;38793;52.690;6.812;2022-10-16T01:14:38;3.53;;;1.00;;
52918;SDS011;38793;52.690;6.812;2022-10-16T01:20:01;5.20;;;1.73;;
52918;SDS011;38793;52.690;6.812;2022-10-16T01:22:59;5.38;;;1.67;;
52918;SDS011;38793;52.690;6.812;2022-10-16T01:25:51;6.10;;;1.17;;
52918;SDS011;38793;52.690;6.812;2022-10-16T01:28:39;7.82;;;1.92;;
52918;SDS011;38793;52.690;6.812;2022-10-16T01:33:40;4.60;;;2.08;;
52918;SDS011;38793;52.690;6.812;2022-10-16T01:36:12;3.30;;;1.63;;
52918;SDS011;38793;52.690;6.812;2022-10-16T01:38:41;7.85;;;1.73;;
52918;SDS011;38793;52.690;6.812;2022-10-16T01:41:14;6.38;;;1.88;;
52918;SDS011;38793;52.690;6.812;2022-10-16T01:43:49;4.85;;;1.20;;
52918;SDS011;38793;52.690;6.812;2022-10-16T01:46:23;4.40;;;1.75;;
52918;SDS011;38793;52.690;6.812;2022-10-16T01:48:49;5.30;;;1.95;;
52918;SDS011;38793;52.690;6.812;2022-10-16T01:51:16;5.97;;;1.30;;
52918;SDS011;38793;52.690;6.812;2022-10-16T01:53:46;5.22;;;1.10;;
52918;SDS011;38793;52.690;6.812;2022-10-16T01:56:15;4.38;;;1.45;;
52918;SDS011;38793;52.690;6.812;2022-10-16T01:58:44;4.28;;;1.90;;
52918;SDS011;38793;52.690;6.812;2022-10-16T02:01:15;4.25;;;1.23;;
52918;SDS011;38793;52.690;6.812;2022-10-16T02:03:42;4.30;;;1.05;;
52918;SDS011;38793;52.690;6.812;2022-10-16T02:06:11;4.07;;;1.45;;
52918;SDS011;38793;52.690;6.812;2022-10-16T02:08:37;3.05;;;1.00;;
52918;SDS011;38793;52.690;6.812;2022-10-16T02:11:05;3.35;;;1.15;;
52918;SDS011;38793;52.690;6.812;2022-10-16T02:13:33;8.75;;;1.30;;
52918;SDS011;38793;52.690;6.812;2022-10-16T02:16:07;2.80;;;1.15;;
52918;SDS011;38793;52.690;6.812;2022-10-16T02:18:35;6.40;;;0.98;;
52918;SDS011;38793;52.690;6.812;2022-10-16T02:21:02;4.50;;;1.35;;
52918;SDS011;38793;52.690;6.812;2022-10-16T02:23:54;6.15;;;0.80;;
52918;SDS011;38793;52.690;6.812;2022-10-16T02:26:44;2.40;;;0.93;;
52918;SDS011;38793;52.690;6.812;2022-10-16T02:29:15;5.60;;;1.30;;
52918;SDS011;38793;52.690;6.812;2022-10-16T02:31:55;4.25;;;1.25;;
52918;SDS011;38793;52.690;6.812;2022-10-16T02:34:25;2.95;;;1.00;;
52918;SDS011;38793;52.690;6.812;2022-10-16T02:36:52;2.38;;;0.88;;
52918;SDS011;38793;52.690;6.812;2022-10-16T02:39:19;6.50;;;1.35;;
52918;SDS011;38793;52.690;6.812;2022-10-16T02:41:46;2.92;;;1.02;;
52918;SDS011;38793;52.690;6.812;2022-10-16T02:44:12;6.93;;;0.80;;
52918;SDS011;38793;52.690;6.812;2022-10-16T02:46:38;3.00;;;1.10;;
52918;SDS011;38793;52.690;6.812;2022-10-16T02:49:03;1.98;;;1.08;;
52918;SDS011;38793;52.690;6.812;2022-10-16T02:51:29;2.50;;;1.10;;
52918;SDS011;38793;52.690;6.812;2022-10-16T02:53:54;3.37;;;1.23;;
52918;SDS011;38793;52.690;6.812;2022-10-16T02:56:20;2.65;;;0.85;;
52918;SDS011;38793;52.690;6.812;2022-10-16T02:58:45;8.83;;;0.97;;
52918;SDS011;38793;52.690;6.812;2022-10-16T03:01:11;3.75;;;0.77;;
52918;SDS011;38793;52.690;6.812;2022-10-16T03:03:37;2.70;;;1.48;;
52918;SDS011;38793;52.690;6.812;2022-10-16T03:06:03;4.18;;;0.80;;
52918;SDS011;38793;52.690;6.812;2022-10-16T03:08:29;2.20;;;0.93;;
52918;SDS011;38793;52.690;6.812;2022-10-16T03:10:54;4.07;;;1.33;;
52918;SDS011;38793;52.690;6.812;2022-10-16T03:13:20;2.50;;;0.83;;
52918;SDS011;38793;52.690;6.812;2022-10-16T03:15:46;1.30;;;1.17;;
52918;SDS011;38793;52.690;6.812;2022-10-16T03:18:12;9.07;;;1.23;;
52918;SDS011;38793;52.690;6.812;2022-10-16T03:20:37;2.78;;;1.13;;
52918;SDS011;38793;52.690;6.812;2022-10-16T03:23:03;2.83;;;0.85;;
52918;SDS011;38793;52.690;6.812;2022-10-16T03:25:29;3.25;;;1.38;;
52918;SDS011;38793;52.690;6.812;2022-10-16T03:27:54;3.07;;;1.63;;
52918;SDS011;38793;52.690;6.812;2022-10-16T03:30:20;2.17;;;1.73;;
52918;SDS011;38793;52.690;6.812;2022-10-16T03:32:46;2.88;;;1.73;;
52918;SDS011;38793;52.690;6.812;2022-10-16T03:35:11;5.53;;;1.67;;
52918;SDS011;38793;52.690;6.812;2022-10-16T03:37:37;4.50;;;1.63;;
52918;SDS011;38793;52.690;6.812;2022-10-16T03:40:03;7.05;;;2.20;;
52918;SDS011;38793;52.690;6.812;2022-10-16T03:44:55;1.52;;;1.42;;
52918;SDS011;38793;52.690;6.812;2022-10-16T03:47:20;1.77;;;1.30;;
52918;SDS011;38793;52.690;6.812;2022-10-16T03:49:48;6.30;;;1.52;;
52918;SDS011;38793;52.690;6.812;2022-10-16T03:52:14;2.95;;;1.35;;
52918;SDS011;38793;52.690;6.812;2022-10-16T03:54:39;6.53;;;1.55;;
52918;SDS011;38793;52.690;6.812;2022-10-16T03:57:05;5.57;;;2.00;;
52918;SDS011;38793;52.690;6.812;2022-10-16T03:59:30;2.95;;;1.90;;
52918;SDS011;38793;52.690;6.812;2022-10-16T04:01:56;4.95;;;1.98;;
52918;SDS011;38793;52.690;6.812;2022-10-16T04:04:21;4.87;;;2.43;;
52918;SDS011;38793;52.690;6.812;2022-10-16T04:06:47;4.27;;;1.30;;
52918;SDS011;38793;52.690;6.812;2022-10-16T04:09:12;6.20;;;1.63;;
52918;SDS011;38793;52.690;6.812;2022-10-16T04:11:38;8.55;;;2.08;;
52918;SDS011;38793;52.690;6.812;2022-10-16T04:14:04;3.45;;;1.98;;
52918;SDS011;38793;52.690;6.812;2022-10-16T04:16:29;5.35;;;1.88;;
52918;SDS011;38793;52.690;6.812;2022-10-16T04:18:55;4.97;;;1.93;;
52918;SDS011;38793;52.690;6.812;2022-10-16T04:21:20;3.65;;;1.92;;
52918;SDS011;38793;52.690;6.812;2022-10-16T04:26:12;3.30;;;1.75;;
52918;SDS011;38793;52.690;6.812;2022-10-16T04:28:38;4.43;;;2.00;;
52918;SDS011;38793;52.690;6.812;2022-10-16T04:31:04;4.40;;;1.95;;
52918;SDS011;38793;52.690;6.812;2022-10-16T04:33:30;3.88;;;1.80;;
52918;SDS011;38793;52.690;6.812;2022-10-16T04:35:56;2.40;;;1.73;;
52918;SDS011;38793;52.690;6.812;2022-10-16T04:38:23;3.78;;;1.98;;
52918;SDS011;38793;52.690;6.812;2022-10-16T04:40:48;5.47;;;1.95;;
52918;SDS011;38793;52.690;6.812;2022-10-16T04:43:14;3.00;;;1.57;;
52918;SDS011;38793;52.690;6.812;2022-10-16T04:45:39;4.93;;;2.40;;
52918;SDS011;38793;52.690;6.812;2022-10-16T04:48:05;3.00;;;1.50;;
52918;SDS011;38793;52.690;6.812;2022-10-16T04:50:30;6.13;;;2.42;;
52918;SDS011;38793;52.690;6.812;2022-10-16T04:52:56;2.38;;;2.00;;
52918;SDS011;38793;52.690;6.812;2022-10-16T04:55:22;6.78;;;1.95;;
52918;SDS011;38793;52.690;6.812;2022-10-16T04:57:47;8.80;;;2.90;;
52918;SDS011;38793;52.690;6.812;2022-10-16T05:00:13;2.03;;;1.83;;
52918;SDS011;38793;52.690;6.812;2022-10-16T05:02:39;6.30;;;2.10;;
52918;SDS011;38793;52.690;6.812;2022-10-16T05:05:04;4.50;;;1.80;;
52918;SDS011;38793;52.690;6.812;2022-10-16T05:07:30;3.63;;;2.47;;
52918;SDS011;38793;52.690;6.812;2022-10-16T05:09:56;3.00;;;1.70;;
52918;SDS011;38793;52.690;6.812;2022-10-16T05:12:21;2.47;;;2.10;;
52918;SDS011;38793;52.690;6.812;2022-10-16T05:14:47;6.07;;;2.30;;
52918;SDS011;38793;52.690;6.812;2022-10-16T05:17:12;3.53;;;1.90;;
52918;SDS011;38793;52.690;6.812;2022-10-16T05:19:38;3.17;;;1.80;;
52918;SDS011;38793;52.690;6.812;2022-10-16T05:22:03;3.95;;;2.08;;
52918;SDS011;38793;52.690;6.812;2022-10-16T05:24:29;4.03;;;2.23;;
52918;SDS011;38793;52.690;6.812;2022-10-16T05:26:54;4.82;;;1.88;;
52918;SDS011;38793;52.690;6.812;2022-10-16T05:29:20;5.37;;;2.43;;
52918;SDS011;38793;52.690;6.812;2022-10-16T05:31:46;6.85;;;2.35;;
52918;SDS011;38793;52.690;6.812;2022-10-16T05:34:11;2.22;;;1.35;;
52918;SDS011;38793;52.690;6.812;2022-10-16T05:36:37;2.88;;;1.42;;
52918;SDS011;38793;52.690;6.812;2022-10-16T05:39:03;2.58;;;1.25;;
52918;SDS011;38793;52.690;6.812;2022-10-16T05:41:28;4.15;;;1.60;;
52918;SDS011;38793;52.690;6.812;2022-10-16T05:43:54;6.53;;;1.97;;
52918;SDS011;38793;52.690;6.812;2022-10-16T05:46:19;6.33;;;2.13;;
52918;SDS011;38793;52.690;6.812;2022-10-16T05:48:45;2.83;;;2.08;;
52918;SDS011;38793;52.690;6.812;2022-10-16T05:51:11;5.10;;;2.15;;
52918;SDS011;38793;52.690;6.812;2022-10-16T05:53:39;3.13;;;1.52;;
52918;SDS011;38793;52.690;6.812;2022-10-16T05:56:06;4.88;;;1.85;;
52918;SDS011;38793;52.690;6.812;2022-10-16T05:58:34;4.30;;;2.13;;
52918;SDS011;38793;52.690;6.812;2022-10-16T06:01:01;2.78;;;1.63;;
52918;SDS011;38793;52.690;6.812;2022-10-16T06:03:29;4.28;;;2.30;;
52918;SDS011;38793;52.690;6.812;2022-10-16T06:05:55;3.70;;;1.90;;
52918;SDS011;38793;52.690;6.812;2022-10-16T06:08:21;4.43;;;1.30;;
52918;SDS011;38793;52.690;6.812;2022-10-16T06:10:47;4.18;;;1.60;;
52918;SDS011;38793;52.690;6.812;2022-10-16T06:13:14;3.05;;;1.63;;
52918;SDS011;38793;52.690;6.812;2022-10-16T06:15:41;6.13;;;1.50;;
52918;SDS011;38793;52.690;6.812;2022-10-16T06:18:08;4.60;;;1.83;;
52918;SDS011;38793;52.690;6.812;2022-10-16T06:22:59;6.05;;;1.10;;
52918;SDS011;38793;52.690;6.812;2022-10-16T06:25:25;3.70;;;2.45;;
52918;SDS011;38793;52.690;6.812;2022-10-16T06:27:51;3.47;;;1.20;;
52918;SDS011;38793;52.690;6.812;2022-10-16T06:30:16;7.63;;;1.42;;
52918;SDS011;38793;52.690;6.812;2022-10-16T06:32:42;3.85;;;1.58;;
52918;SDS011;38793;52.690;6.812;2022-10-16T06:35:07;3.97;;;1.47;;
52918;SDS011;38793;52.690;6.812;2022-10-16T06:37:33;2.95;;;1.70;;
52918;SDS011;38793;52.690;6.812;2022-10-16T06:39:58;4.28;;;1.40;;
52918;SDS011;38793;52.690;6.812;2022-10-16T06:42:25;1.58;;;1.25;;
52918;SDS011;38793;52.690;6.812;2022-10-16T06:44:51;5.00;;;1.48;;
52918;SDS011;38793;52.690;6.812;2022-10-16T06:47:16;2.95;;;1.00;;
52918;SDS011;38793;52.690;6.812;2022-10-16T06:49:42;1.85;;;1.23;;
52918;SDS011;38793;52.690;6.812;2022-10-16T06:52:07;3.73;;;1.10;;
52918;SDS011;38793;52.690;6.812;2022-10-16T06:54:33;4.30;;;1.60;;
52918;SDS011;38793;52.690;6.812;2022-10-16T06:56:58;2.37;;;1.80;;
52918;SDS011;38793;52.690;6.812;2022-10-16T06:59:25;3.05;;;1.27;;
52918;SDS011;38793;52.690;6.812;2022-10-16T07:01:50;3.58;;;1.33;;
52918;SDS011;38793;52.690;6.812;2022-10-16T07:04:16;2.80;;;1.38;;
52918;SDS011;38793;52.690;6.812;2022-10-16T07:06:41;5.05;;;1.00;;
52918;SDS011;38793;52.690;6.812;2022-10-16T07:09:08;4.90;;;1.35;;
52918;SDS011;38793;52.690;6.812;2022-10-16T07:11:36;1.90;;;1.20;;
52918;SDS011;38793;52.690;6.812;2022-10-16T07:14:02;3.83;;;1.08;;
52918;SDS011;38793;52.690;6.812;2022-10-16T07:16:29;4.80;;;1.50;;
52918;SDS011;38793;52.690;6.812;2022-10-16T07:18:56;3.50;;;1.73;;
52918;SDS011;38793;52.690;6.812;2022-10-16T07:21:24;4.32;;;1.50;;
52918;SDS011;38793;52.690;6.812;2022-10-16T07:23:51;3.35;;;1.85;;
52918;SDS011;38793;52.690;6.812;2022-10-16T07:26:18;3.63;;;1.60;;
52918;SDS011;38793;52.690;6.812;2022-10-16T07:28:44;3.28;;;1.35;;
52918;SDS011;38793;52.690;6.812;2022-10-16T07:31:10;5.72;;;1.55;;
52918;SDS011;38793;52.690;6.812;2022-10-16T07:33:38;7.72;;;1.52;;
52918;SDS011;38793;52.690;6.812;2022-10-16T07:36:05;7.90;;;1.80;;
52918;SDS011;38793;52.690;6.812;2022-10-16T07:38:31;4.70;;;1.25;;
52918;SDS011;38793;52.690;6.812;2022-10-16T07:40:57;2.40;;;1.40;;
52918;SDS011;38793;52.690;6.812;2022-10-16T07:43:23;4.75;;;1.52;;
52918;SDS011;38793;52.690;6.812;2022-10-16T07:45:50;2.65;;;0.90;;
52918;SDS011;38793;52.690;6.812;2022-10-16T07:48:16;3.70;;;1.55;;
52918;SDS011;38793;52.690;6.812;2022-10-16T07:50:42;4.45;;;1.75;;
52918;SDS011;38793;52.690;6.812;2022-10-16T07:53:08;2.50;;;1.30;;
52918;SDS011;38793;52.690;6.812;2022-10-16T07:55:34;4.85;;;1.60;;
52918;SDS011;38793;52.690;6.812;2022-10-16T07:58:00;2.58;;;1.73;;
52918;SDS011;38793;52.690;6.812;2022-10-16T08:00:25;6.20;;;0.82;;
52918;SDS011;38793;52.690;6.812;2022-10-16T08:02:51;3.33;;;1.30;;
52918;SDS011;38793;52.690;6.812;2022-10-16T08:05:16;3.57;;;0.93;;
52918;SDS011;38793;52.690;6.812;2022-10-16T08:07:42;1.60;;;0.80;;
52918;SDS011;38793;52.690;6.812;2022-10-16T08:10:14;2.10;;;0.50;;
52918;SDS011;38793;52.690;6.812;2022-10-16T08:12:43;6.55;;;0.82;;
52918;SDS011;38793;52.690;6.812;2022-10-16T08:15:08;2.53;;;0.70;;
52918;SDS011;38793;52.690;6.812;2022-10-16T08:17:34;5.57;;;1.10;;
52918;SDS011;38793;52.690;6.812;2022-10-16T08:20:00;2.88;;;1.08;;
52918;SDS011;38793;52.690;6.812;2022-10-16T08:22:26;2.05;;;0.82;;
52918;SDS011;38793;52.690;6.812;2022-10-16T08:24:52;5.03;;;0.93;;
52918;SDS011;38793;52.690;6.812;2022-10-16T08:27:17;2.08;;;1.20;;
52918;SDS011;38793;52.690;6.812;2022-10-16T08:29:43;4.43;;;1.10;;
52918;SDS011;38793;52.690;6.812;2022-10-16T08:32:08;5.80;;;1.40;;
52918;SDS011;38793;52.690;6.812;2022-10-16T08:34:34;2.50;;;1.17;;
52918;SDS011;38793;52.690;6.812;2022-10-16T08:36:59;2.20;;;1.05;;
52918;SDS011;38793;52.690;6.812;2022-10-16T08:39:25;3.45;;;1.20;;
52918;SDS011;38793;52.690;6.812;2022-10-16T08:41:56;2.43;;;1.10;;
52918;SDS011;38793;52.690;6.812;2022-10-16T08:44:30;4.13;;;1.35;;
52918;SDS011;38793;52.690;6.812;2022-10-16T08:47:14;2.10;;;0.95;;
52918;SDS011;38793;52.690;6.812;2022-10-16T08:49:51;3.25;;;1.40;;
52918;SDS011;38793;52.690;6.812;2022-10-16T08:52:38;4.55;;;1.45;;
52918;SDS011;38793;52.690;6.812;2022-10-16T08:55:08;4.05;;;0.88;;
52918;SDS011;38793;52.690;6.812;2022-10-16T08:57:46;2.63;;;1.88;;
52918;SDS011;38793;52.690;6.812;2022-10-16T09:00:12;2.35;;;1.10;;
52918;SDS011;38793;52.690;6.812;2022-10-16T09:02:40;4.95;;;0.90;;
52918;SDS011;38793;52.690;6.812;2022-10-16T09:07:54;5.43;;;0.70;;
52918;SDS011;38793;52.690;6.812;2022-10-16T09:13:29;7.47;;;1.13;;
52918;SDS011;38793;52.690;6.812;2022-10-16T09:21:31;4.28;;;0.65;;
52918;SDS011;38793;52.690;6.812;2022-10-16T09:24:19;2.55;;;1.13;;
52918;SDS011;38793;52.690;6.812;2022-10-16T09:26:46;4.28;;;0.70;;
52918;SDS011;38793;52.690;6.812;2022-10-16T09:29:13;2.15;;;0.98;;
52918;SDS011;38793;52.690;6.812;2022-10-16T09:31:40;6.75;;;0.60;;
52918;SDS011;38793;52.690;6.812;2022-10-16T09:34:08;8.77;;;0.55;;
52918;SDS011;38793;52.690;6.812;2022-10-16T09:36:59;6.53;;;0.80;;
52918;SDS011;38793;52.690;6.812;2022-10-16T09:39:26;6.15;;;0.70;;
52918;SDS011;38793;52.690;6.812;2022-10-16T09:41:51;7.57;;;1.17;;
52918;SDS011;38793;52.690;6.812;2022-10-16T09:47:03;5.22;;;0.90;;
52918;SDS011;38793;52.690;6.812;2022-10-16T09:49:30;6.30;;;0.63;;
52918;SDS011;38793;52.690;6.812;2022-10-16T09:57:20;4.18;;;0.50;;
52918;SDS011;38793;52.690;6.812;2022-10-16T10:02:14;4.60;;;0.68;;
52918;SDS011;38793;52.690;6.812;2022-10-16T10:04:44;4.43;;;0.80;;
52918;SDS011;38793;52.690;6.812;2022-10-16T10:07:18;5.13;;;0.40;;
52918;SDS011;38793;52.690;6.812;2022-10-16T10:09:49;7.22;;;0.95;;
52918;SDS011;38793;52.690;6.812;2022-10-16T10:14:53;6.47;;;0.75;;
52918;SDS011;38793;52.690;6.812;2022-10-16T10:17:22;5.30;;;0.80;;
52918;SDS011;38793;52.690;6.812;2022-10-16T10:19:59;6.28;;;0.70;;
52918;SDS011;38793;52.690;6.812;2022-10-16T10:30:10;6.82;;;0.70;;
52918;SDS011;38793;52.690;6.812;2022-10-16T10:32:49;6.28;;;0.73;;
52918;SDS011;38793;52.690;6.812;2022-10-16T10:35:44;8.05;;;1.02;;
52918;SDS011;38793;52.690;6.812;2022-10-16T10:38:31;5.25;;;0.50;;
52918;SDS011;38793;52.690;6.812;2022-10-16T10:41:27;12.27;;;1.10;;
52918;SDS011;38793;52.690;6.812;2022-10-16T10:46:43;7.05;;;1.15;;
52918;SDS011;38793;52.690;6.812;2022-10-16T10:58:07;11.57;;;1.08;;
52918;SDS011;38793;52.690;6.812;2022-10-16T11:06:22;7.22;;;0.73;;
52918;SDS011;38793;52.690;6.812;2022-10-16T11:08:57;9.57;;;0.82;;
52918;SDS011;38793;52.690;6.812;2022-10-16T11:11:38;7.63;;;0.85;;
52918;SDS011;38793;52.690;6.812;2022-10-16T11:14:30;8.45;;;0.88;;
52918;SDS011;38793;52.690;6.812;2022-10-16T11:17:01;8.98;;;1.15;;
52918;SDS011;38793;52.690;6.812;2022-10-16T11:19:49;4.40;;;0.73;;
52918;SDS011;38793;52.690;6.812;2022-10-16T11:22:32;4.85;;;1.02;;
52918;SDS011;38793;52.690;6.812;2022-10-16T11:27:50;12.07;;;1.33;;
52918;SDS011;38793;52.690;6.812;2022-10-16T11:30:20;10.95;;;1.60;;
52918;SDS011;38793;52.690;6.812;2022-10-16T11:33:00;9.77;;;0.90;;
52918;SDS011;38793;52.690;6.812;2022-10-16T11:35:39;8.32;;;0.90;;
52918;SDS011;38793;52.690;6.812;2022-10-16T11:38:53;4.32;;;0.50;;
52918;SDS011;38793;52.690;6.812;2022-10-16T11:41:10;3.08;;;0.80;;
52918;SDS011;38793;52.690;6.812;2022-10-16T11:43:55;7.22;;;0.93;;
52918;SDS011;38793;52.690;6.812;2022-10-16T11:46:31;7.18;;;1.08;;
52918;SDS011;38793;52.690;6.812;2022-10-16T11:51:48;9.57;;;1.02;;
52918;SDS011;38793;52.690;6.812;2022-10-16T11:54:45;4.72;;;0.63;;
52918;SDS011;38793;52.690;6.812;2022-10-16T11:57:38;5.60;;;0.43;;
52918;SDS011;38793;52.690;6.812;2022-10-16T12:08:22;9.57;;;1.15;;
52918;SDS011;38793;52.690;6.812;2022-10-16T12:10:48;6.63;;;0.60;;
52918;SDS011;38793;52.690;6.812;2022-10-16T12:13:33;9.45;;;1.05;;
52918;SDS011;38793;52.690;6.812;2022-10-16T12:16:05;6.25;;;0.93;;
52918;SDS011;38793;52.690;6.812;2022-10-16T12:18:42;5.38;;;0.70;;
52918;SDS011;38793;52.690;6.812;2022-10-16T12:21:09;6.03;;;0.77;;
52918;SDS011;38793;52.690;6.812;2022-10-16T12:26:27;8.30;;;1.35;;
52918;SDS011;38793;52.690;6.812;2022-10-16T12:28:55;6.30;;;1.20;;
52918;SDS011;38793;52.690;6.812;2022-10-16T12:31:39;8.38;;;1.27;;
52918;SDS011;38793;52.690;6.812;2022-10-16T12:36:50;8.73;;;0.85;;
52918;SDS011;38793;52.690;6.812;2022-10-16T12:39:20;4.13;;;0.40;;
52918;SDS011;38793;52.690;6.812;2022-10-16T12:41:48;8.30;;;0.47;;
52918;SDS011;38793;52.690;6.812;2022-10-16T12:44:27;11.32;;;1.00;;
52918;SDS011;38793;52.690;6.812;2022-10-16T12:46:58;6.35;;;0.75;;
52918;SDS011;38793;52.690;6.812;2022-10-16T12:52:03;8.38;;;0.82;;
52918;SDS011;38793;52.690;6.812;2022-10-16T13:00:04;4.25;;;0.50;;
52918;SDS011;38793;52.690;6.812;2022-10-16T13:02:57;6.20;;;0.50;;
52918;SDS011;38793;52.690;6.812;2022-10-16T13:05:58;16.25;;;0.93;;
52918;SDS011;38793;52.690;6.812;2022-10-16T13:08:38;5.35;;;1.30;;
52918;SDS011;38793;52.690;6.812;2022-10-16T13:11:23;6.95;;;0.90;;
52918;SDS011;38793;52.690;6.812;2022-10-16T13:13:59;7.65;;;1.13;;
52918;SDS011;38793;52.690;6.812;2022-10-16T13:22:21;17.00;;;2.38;;
52918;SDS011;38793;52.690;6.812;2022-10-16T13:30:23;6.20;;;0.60;;
52918;SDS011;38793;52.690;6.812;2022-10-16T13:33:04;14.75;;;1.10;;
52918;SDS011;38793;52.690;6.812;2022-10-16T13:35:35;5.30;;;0.50;;
52918;SDS011;38793;52.690;6.812;2022-10-16T13:38:14;5.55;;;0.95;;
52918;SDS011;38793;52.690;6.812;2022-10-16T13:40:48;8.35;;;1.25;;
52918;SDS011;38793;52.690;6.812;2022-10-16T13:43:18;5.40;;;0.60;;
52918;SDS011;38793;52.690;6.812;2022-10-16T13:45:55;6.78;;;1.15;;
52918;SDS011;38793;52.690;6.812;2022-10-16T13:48:22;4.85;;;1.15;;
52918;SDS011;38793;52.690;6.812;2022-10-16T13:50:58;7.03;;;0.50;;
52918;SDS011;38793;52.690;6.812;2022-10-16T13:55:50;6.97;;;0.47;;
52918;SDS011;38793;52.690;6.812;2022-10-16T13:58:16;5.28;;;0.70;;
52918;SDS011;38793;52.690;6.812;2022-10-16T14:00:52;8.40;;;0.75;;
52918;SDS011;38793;52.690;6.812;2022-10-16T14:03:20;3.95;;;0.70;;
52918;SDS011;38793;52.690;6.812;2022-10-16T14:05:47;6.03;;;0.40;;
52918;SDS011;38793;52.690;6.812;2022-10-16T14:08:20;4.45;;;0.75;;
52918;SDS011;38793;52.690;6.812;2022-10-16T14:10:51;5.60;;;0.70;;
52918;SDS011;38793;52.690;6.812;2022-10-16T14:13:22;5.40;;;0.73;;
52918;SDS011;38793;52.690;6.812;2022-10-16T14:16:02;8.93;;;1.02;;
52918;SDS011;38793;52.690;6.812;2022-10-16T14:18:32;5.63;;;0.57;;
52918;SDS011;38793;52.690;6.812;2022-10-16T14:21:05;6.55;;;1.08;;
52918;SDS011;38793;52.690;6.812;2022-10-16T14:23:33;2.33;;;0.35;;
52918;SDS011;38793;52.690;6.812;2022-10-16T14:26:06;5.28;;;0.60;;
52918;SDS011;38793;52.690;6.812;2022-10-16T14:28:42;6.13;;;0.60;;
52918;SDS011;38793;52.690;6.812;2022-10-16T14:33:56;4.05;;;0.52;;
52918;SDS011;38793;52.690;6.812;2022-10-16T14:36:22;9.48;;;0.57;;
52918;SDS011;38793;52.690;6.812;2022-10-16T14:38:59;6.43;;;0.77;;
52918;SDS011;38793;52.690;6.812;2022-10-16T14:41:30;4.68;;;1.17;;
52918;SDS011;38793;52.690;6.812;2022-10-16T14:44:01;5.30;;;0.70;;
52918;SDS011;38793;52.690;6.812;2022-10-16T14:46:30;7.55;;;0.80;;
52918;SDS011;38793;52.690;6.812;2022-10-16T14:49:05;6.47;;;0.55;;
52918;SDS011;38793;52.690;6.812;2022-10-16T14:51:38;7.20;;;0.47;;
52918;SDS011;38793;52.690;6.812;2022-10-16T14:54:07;6.57;;;1.15;;
52918;SDS011;38793;52.690;6.812;2022-10-16T14:56:50;7.50;;;0.90;;
52918;SDS011;38793;52.690;6.812;2022-10-16T14:59:37;5.07;;;1.05;;
52918;SDS011;38793;52.690;6.812;2022-10-16T15:02:12;3.80;;;0.50;;
52918;SDS011;38793;52.690;6.812;2022-10-16T15:04:43;12.48;;;1.27;;
52918;SDS011;38793;52.690;6.812;2022-10-16T15:07:09;6.47;;;0.77;;
52918;SDS011;38793;52.690;6.812;2022-10-16T15:09:34;13.98;;;1.08;;
52918;SDS011;38793;52.690;6.812;2022-10-16T15:12:00;5.43;;;0.80;;
52918;SDS011;38793;52.690;6.812;2022-10-16T15:14:25;7.93;;;1.10;;
52918;SDS011;38793;52.690;6.812;2022-10-16T15:16:51;5.25;;;0.82;;
52918;SDS011;38793;52.690;6.812;2022-10-16T15:19:16;8.70;;;0.82;;
52918;SDS011;38793;52.690;6.812;2022-10-16T15:21:42;7.25;;;0.95;;
52918;SDS011;38793;52.690;6.812;2022-10-16T15:24:09;10.52;;;0.57;;
52918;SDS011;38793;52.690;6.812;2022-10-16T15:26:37;6.90;;;0.90;;
52918;SDS011;38793;52.690;6.812;2022-10-16T15:29:03;4.93;;;0.60;;
52918;SDS011;38793;52.690;6.812;2022-10-16T15:31:29;5.18;;;0.75;;
52918;SDS011;38793;52.690;6.812;2022-10-16T15:36:30;7.93;;;2.00;;
52918;SDS011;38793;52.690;6.812;2022-10-16T15:39:34;4.20;;;0.70;;
52918;SDS011;38793;52.690;6.812;2022-10-16T15:41:53;7.18;;;0.90;;
52918;SDS011;38793;52.690;6.812;2022-10-16T15:44:19;10.30;;;1.00;;
52918;SDS011;38793;52.690;6.812;2022-10-16T15:46:47;9.77;;;0.60;;
52918;SDS011;38793;52.690;6.812;2022-10-16T15:49:13;14.60;;;1.05;;
52918;SDS011;38793;52.690;6.812;2022-10-16T15:51:40;6.00;;;0.82;;
52918;SDS011;38793;52.690;6.812;2022-10-16T15:54:07;10.23;;;1.45;;
52918;SDS011;38793;52.690;6.812;2022-10-16T15:56:33;5.32;;;0.63;;
52918;SDS011;38793;52.690;6.812;2022-10-16T15:59:02;7.03;;;1.10;;
52918;SDS011;38793;52.690;6.812;2022-10-16T16:01:27;6.22;;;1.27;;
52918;SDS011;38793;52.690;6.812;2022-10-16T16:03:54;15.43;;;1.95;;
52918;SDS011;38793;52.690;6.812;2022-10-16T16:08:46;5.05;;;1.58;;
52918;SDS011;38793;52.690;6.812;2022-10-16T16:11:13;5.20;;;0.80;;
52918;SDS011;38793;52.690;6.812;2022-10-16T16:13:40;3.35;;;0.57;;
52918;SDS011;38793;52.690;6.812;2022-10-16T16:16:07;6.30;;;0.98;;
52918;SDS011;38793;52.690;6.812;2022-10-16T16:18:34;11.35;;;0.93;;
52918;SDS011;38793;52.690;6.812;2022-10-16T16:20:59;4.93;;;0.60;;
52918;SDS011;38793;52.690;6.812;2022-10-16T16:23:25;9.07;;;0.70;;
52918;SDS011;38793;52.690;6.812;2022-10-16T16:28:39;8.90;;;0.70;;
52918;SDS011;38793;52.690;6.812;2022-10-16T16:31:06;6.57;;;0.77;;
52918;SDS011;38793;52.690;6.812;2022-10-16T16:33:33;4.75;;;0.75;;
52918;SDS011;38793;52.690;6.812;2022-10-16T16:35:59;8.57;;;0.90;;
52918;SDS011;38793;52.690;6.812;2022-10-16T16:38:26;10.07;;;1.77;;
52918;SDS011;38793;52.690;6.812;2022-10-16T16:40:52;8.52;;;0.85;;
52918;SDS011;38793;52.690;6.812;2022-10-16T16:43:18;2.53;;;0.60;;
52918;SDS011;38793;52.690;6.812;2022-10-16T16:45:44;8.50;;;0.75;;
52918;SDS011;38793;52.690;6.812;2022-10-16T16:48:10;10.00;;;1.73;;
52918;SDS011;38793;52.690;6.812;2022-10-16T16:50:36;6.03;;;1.17;;
52918;SDS011;38793;52.690;6.812;2022-10-16T16:53:02;6.93;;;0.80;;
52918;SDS011;38793;52.690;6.812;2022-10-16T16:55:28;5.93;;;0.73;;
52918;SDS011;38793;52.690;6.812;2022-10-16T16:57:53;6.40;;;1.55;;